Main page
METAR-TAF:

METAR-TAF

Airports :

Logroño–Agoncillo Airport

Logroño, Spain

latitude: 42-27N, longitude: 002-20W, elevation: 353 m

Current weather observation

The report was made 36 minutes ago, at 04:00 UTC
Wind 1 kt from the West
Temperature 16°C
Humidity 88%
Pressure 1016 hPa
Visibility 10 km or more
no clouds below 1500 m and no cumulonimbus

METAR: LELO 160400Z 26001KT CAVOK 16/14 Q1016

Time: 06:36 (04:36 UTC)

Forecast

The report was made 2 hours and 36 minutes ago, at 02:00 UTC
Forecast valid from 16 at 03 UTC to 16 at 12 UTC
Wind 5 kt from variable directions
Visibility 10 km or more
Few clouds at a height of 4000 ft
Probability 30% :
Temporary
from 16 at 03 UTC to 16 at 07 UTC
Broken clouds at a height of 1200 ft

TAF: LELO 160200Z 1603/1612 VRB05KT 9999 FEW040 PROB30 TEMPO 1603/1607 BKN012

Weather observations and forecasts of more than 4000 airports (METAR and TAF reports).

The available stations are represented by yellow and red dots on the map.

Hover mouse over dot to see the name of the station.

Then click to see weather observations and forecasts.

To change the map : click on the green buttons with a black cross to zoom in, on the green button with a dash to zoom out, or on the green arrows for adjacent maps.


METAR-TAF: